createdAt,value
2019-01-23T00:01:20.170Z,96.41
2019-01-23T00:03:49.198Z,96.27
2019-01-23T00:06:17.802Z,96.26
2019-01-23T00:08:46.413Z,96.11
2019-01-23T00:11:17.990Z,96.00
2019-01-23T00:13:46.587Z,95.95
2019-01-23T00:16:15.531Z,95.60
2019-01-23T00:18:47.211Z,95.49
2019-01-23T00:21:15.823Z,95.31
2019-01-23T00:23:44.531Z,95.26
2019-01-23T00:26:13.549Z,95.49
2019-01-23T00:28:45.159Z,95.68
2019-01-23T00:31:17.149Z,95.70
2019-01-23T00:33:48.845Z,95.62
2019-01-23T00:36:17.458Z,95.53
2019-01-23T00:38:46.064Z,95.58
2019-01-23T00:41:14.681Z,95.67
2019-01-23T00:43:46.149Z,95.67
2019-01-23T00:46:17.731Z,95.69
2019-01-23T00:48:49.413Z,95.96
2019-01-23T00:51:22.549Z,96.24
2019-01-23T00:53:55.051Z,96.20
2019-01-23T00:56:29.696Z,96.21
2019-01-23T00:59:00.969Z,96.26
2019-01-23T01:01:29.681Z,96.25
2019-01-23T01:04:01.613Z,96.57
2019-01-23T01:06:30.281Z,96.65
2019-01-23T01:08:58.889Z,96.51
2019-01-23T01:11:27.606Z,96.33
2019-01-23T01:13:56.210Z,96.06
2019-01-23T01:16:24.763Z,95.89
2019-01-23T01:18:55.315Z,95.77
2019-01-23T01:21:23.880Z,95.86
2019-01-23T01:23:52.651Z,95.72
2019-01-23T01:26:21.576Z,95.55
2019-01-23T01:28:55.858Z,95.33
2019-01-23T01:31:20.529Z,95.26
2019-01-23T01:33:49.117Z,95.21
2019-01-23T01:36:17.756Z,95.21
2019-01-23T01:38:46.779Z,95.09
2019-01-23T01:41:15.423Z,95.27
2019-01-23T01:43:44.015Z,95.23
2019-01-23T01:46:15.383Z,95.17
2019-01-23T01:48:44.011Z,94.97
2019-01-23T01:51:12.621Z,94.90
2019-01-23T01:53:41.233Z,94.76
2019-01-23T01:56:09.943Z,94.81
2019-01-23T01:58:38.556Z,94.88
2019-01-23T02:01:07.166Z,94.68
2019-01-23T02:03:35.776Z,94.40
2019-01-23T02:06:04.690Z,94.20
2019-01-23T02:08:33.300Z,94.54
2019-01-23T02:11:01.912Z,94.64
2019-01-23T02:13:30.518Z,94.71
2019-01-23T02:15:59.129Z,94.86
2019-01-23T02:18:27.737Z,94.97
2019-01-23T02:20:56.970Z,94.93
2019-01-23T02:23:25.574Z,95.02
2019-01-23T02:25:54.285Z,95.19
2019-01-23T02:28:25.775Z,95.20
2019-01-23T02:30:57.151Z,95.22
2019-01-23T02:33:25.772Z,95.25
2019-01-23T02:35:54.349Z,95.38
2019-01-23T02:38:24.438Z,95.54
2019-01-23T02:40:55.993Z,95.55
2019-01-23T02:43:24.556Z,95.26
2019-01-23T02:45:56.147Z,95.05
2019-01-23T02:48:25.173Z,95.04
2019-01-23T02:50:57.060Z,94.87
2019-01-23T02:53:25.863Z,94.74
2019-01-23T02:55:54.490Z,94.67
2019-01-23T02:58:26.387Z,94.92
2019-01-23T03:00:55.344Z,94.81
2019-01-23T03:03:24.317Z,94.74
2019-01-23T03:05:54.481Z,94.52
2019-01-23T03:08:25.669Z,94.46
2019-01-23T03:10:54.388Z,94.25
2019-01-23T03:13:24.501Z,94.28
2019-01-23T03:15:55.908Z,94.22
2019-01-23T03:18:27.796Z,94.31
2019-01-23T03:20:59.172Z,94.11
2019-01-23T03:23:30.752Z,93.75
2019-01-23T03:26:02.841Z,93.46
2019-01-23T03:28:34.435Z,93.13
2019-01-23T03:31:03.034Z,93.14
2019-01-23T03:33:31.609Z,93.04
2019-01-23T03:36:00.249Z,92.89
2019-01-23T03:38:28.861Z,93.03
2019-01-23T03:40:57.568Z,92.65
2019-01-23T03:43:26.133Z,92.67
2019-01-23T03:45:57.778Z,92.79
2019-01-23T03:48:26.385Z,92.96
2019-01-23T03:50:55.000Z,92.47
2019-01-23T03:53:25.257Z,92.46
2019-01-23T03:55:56.944Z,92.41
2019-01-23T03:58:25.871Z,92.19
2019-01-23T04:00:54.491Z,92.25
2019-01-23T04:03:25.624Z,92.33
2019-01-23T04:05:54.223Z,92.21
2019-01-23T04:08:24.508Z,91.84
2019-01-23T04:10:56.101Z,92.19
2019-01-23T04:13:25.052Z,92.20
2019-01-23T04:15:55.217Z,92.12
2019-01-23T04:18:26.659Z,91.36
2019-01-23T04:20:55.270Z,91.71
2019-01-23T04:23:26.560Z,91.80
2019-01-23T04:25:55.173Z,91.76
2019-01-23T04:28:26.564Z,91.36
2019-01-23T04:30:55.169Z,91.80
2019-01-23T04:33:26.902Z,91.93
2019-01-23T04:35:55.583Z,92.03
2019-01-23T04:38:24.190Z,92.19
2019-01-23T04:40:55.441Z,92.15
2019-01-23T04:43:26.744Z,91.96
2019-01-23T04:45:58.647Z,91.59
2019-01-23T04:48:27.266Z,91.62
2019-01-23T04:51:09.313Z,91.71
2019-01-23T04:53:39.548Z,91.87
2019-01-23T04:56:08.160Z,92.29
2019-01-23T04:58:36.728Z,92.26
2019-01-23T05:01:08.247Z,92.27
2019-01-23T05:03:36.867Z,92.06
2019-01-23T05:06:05.897Z,92.38
2019-01-23T05:08:37.364Z,92.35
2019-01-23T05:11:05.964Z,92.37
2019-01-23T05:13:37.218Z,92.16
2019-01-23T05:16:06.826Z,92.30
2019-01-23T05:18:35.422Z,92.60
2019-01-23T05:21:04.135Z,92.90
2019-01-23T05:23:35.512Z,92.75
2019-01-23T05:26:04.248Z,92.17
2019-01-23T05:28:35.648Z,92.11
2019-01-23T05:31:07.134Z,91.59
2019-01-23T05:33:38.722Z,91.38
2019-01-23T05:36:07.338Z,91.40
2019-01-23T05:38:38.917Z,91.19
2019-01-23T05:41:10.705Z,91.24
2019-01-23T05:43:42.267Z,91.25
2019-01-23T05:46:13.564Z,91.75
2019-01-23T05:48:45.243Z,91.41
2019-01-23T05:51:16.883Z,91.38
2019-01-23T05:53:48.182Z,91.12
2019-01-23T05:56:19.488Z,91.44
2019-01-23T05:58:48.161Z,92.05
2019-01-23T06:01:16.911Z,92.05
2019-01-23T06:03:45.481Z,91.83
2019-01-23T06:06:14.538Z,91.54
2019-01-23T06:08:46.437Z,91.34
2019-01-23T06:11:15.492Z,91.42
2019-01-23T06:13:44.476Z,91.30
2019-01-23T06:16:15.753Z,91.28
2019-01-23T06:18:44.359Z,91.82
2019-01-23T06:21:12.930Z,92.01
2019-01-23T06:23:41.703Z,92.08
2019-01-23T06:26:10.410Z,92.11
2019-01-23T06:28:39.429Z,92.31
2019-01-23T06:31:08.006Z,92.55
2019-01-23T06:33:39.508Z,92.65
2019-01-23T06:36:08.090Z,92.86
2019-01-23T06:38:37.058Z,92.65
2019-01-23T06:41:05.796Z,92.40
2019-01-23T06:43:34.404Z,92.52
2019-01-23T06:46:03.022Z,92.30
2019-01-23T06:48:31.579Z,91.93
2019-01-23T06:51:00.264Z,91.78
2019-01-23T06:53:28.912Z,91.81
2019-01-23T06:55:57.527Z,92.08
2019-01-23T06:58:26.474Z,91.87
2019-01-23T07:00:55.048Z,91.93
2019-01-23T07:03:25.306Z,91.81
2019-01-23T07:05:56.685Z,92.19
2019-01-23T07:08:25.395Z,92.22
2019-01-23T07:10:54.154Z,92.46
2019-01-23T07:13:22.796Z,92.34
2019-01-23T07:15:54.553Z,92.34
2019-01-23T07:18:25.538Z,92.71
2019-01-23T07:20:54.140Z,92.73
2019-01-23T07:23:22.726Z,92.77
2019-01-23T07:25:51.708Z,92.71
2019-01-23T07:28:20.282Z,92.98
2019-01-23T07:30:48.835Z,93.10
2019-01-23T07:33:17.508Z,92.89
2019-01-23T07:35:49.183Z,92.67
2019-01-23T07:38:21.386Z,92.66
2019-01-23T07:40:53.075Z,92.90
2019-01-23T07:43:21.961Z,93.05
2019-01-23T07:45:53.497Z,93.12
2019-01-23T07:48:24.774Z,92.95
2019-01-23T07:50:53.699Z,92.89
2019-01-23T07:53:25.436Z,92.80
2019-01-23T07:55:54.435Z,92.74
2019-01-23T07:58:24.845Z,92.64
2019-01-23T08:00:56.220Z,92.79
2019-01-23T08:03:24.826Z,92.28
2019-01-23T08:05:56.333Z,92.18
2019-01-23T08:08:25.028Z,92.15
2019-01-23T08:10:54.982Z,91.55
2019-01-23T08:13:25.261Z,91.26
2019-01-23T08:15:59.657Z,90.91
2019-01-23T08:18:31.206Z,90.25
2019-01-23T08:20:59.816Z,90.10
2019-01-23T08:23:28.439Z,89.96
2019-01-23T08:25:57.059Z,90.21
2019-01-23T08:28:25.628Z,90.44
2019-01-23T08:30:54.256Z,90.38
2019-01-23T08:33:24.521Z,90.02
2019-01-23T08:35:56.529Z,90.25
2019-01-23T08:38:25.148Z,91.01
2019-01-23T08:40:57.789Z,90.71
2019-01-23T08:43:26.511Z,90.54
2019-01-23T08:45:55.169Z,90.62
2019-01-23T08:48:27.810Z,90.53
2019-01-23T08:50:56.421Z,90.23
2019-01-23T08:53:25.065Z,89.15
2019-01-23T08:55:55.617Z,89.21
2019-01-23T08:58:24.225Z,89.82
2019-01-23T09:00:54.382Z,89.79
2019-01-23T09:03:24.547Z,89.88
2019-01-23T09:05:56.204Z,89.62
2019-01-23T09:08:24.771Z,90.22
2019-01-23T09:10:53.338Z,90.03
2019-01-23T09:13:23.634Z,89.27
2019-01-23T09:15:52.342Z,89.11
2019-01-23T09:18:20.948Z,89.69
2019-01-23T09:20:49.520Z,89.68
2019-01-23T09:23:18.090Z,90.01
2019-01-23T09:25:50.123Z,89.26
2019-01-23T09:28:17.456Z,89.27
2019-01-23T09:30:52.691Z,88.28
2019-01-23T09:33:25.100Z,87.72
2019-01-23T09:36:28.891Z,88.35
2019-01-23T09:39:24.029Z,87.50
2019-01-23T09:42:10.882Z,88.04
2019-01-23T09:45:12.395Z,87.21
2019-01-23T09:47:49.787Z,86.43
2019-01-23T09:50:27.025Z,87.16
2019-01-23T09:53:04.450Z,87.04
2019-01-23T09:55:36.232Z,87.28
2019-01-23T09:58:05.057Z,87.25
2019-01-23T10:00:34.587Z,87.04
2019-01-23T10:03:03.424Z,87.27
2019-01-23T10:05:32.035Z,86.64
2019-01-23T10:08:03.640Z,86.89
2019-01-23T10:10:35.064Z,86.22
2019-01-23T10:13:06.851Z,86.35
2019-01-23T10:15:57.692Z,86.10
2019-01-23T10:18:26.297Z,85.82
2019-01-23T10:20:57.714Z,85.54
2019-01-23T10:23:28.964Z,86.02
2019-01-23T10:25:57.689Z,85.79
2019-01-23T10:28:26.911Z,85.93
2019-01-23T10:30:55.560Z,85.18
2019-01-23T10:33:24.229Z,86.10
2019-01-23T10:35:54.392Z,84.86
2019-01-23T10:38:23.178Z,84.32
2019-01-23T10:40:53.363Z,83.92
2019-01-23T10:43:23.739Z,83.93
2019-01-23T10:45:55.341Z,84.50
2019-01-23T10:48:24.062Z,84.37
2019-01-23T10:50:52.790Z,84.04
2019-01-23T10:53:21.866Z,84.52
2019-01-23T10:55:53.516Z,83.75
2019-01-23T10:58:22.121Z,84.47
2019-01-23T11:00:50.783Z,83.49
2019-01-23T11:03:19.366Z,83.17
2019-01-23T11:05:50.887Z,82.15
2019-01-23T11:08:22.159Z,82.87
2019-01-23T11:10:51.955Z,84.16
2019-01-23T11:13:22.131Z,84.00
2019-01-23T11:15:50.816Z,83.03
2019-01-23T11:18:19.440Z,83.05
2019-01-23T11:20:48.014Z,84.05
2019-01-23T11:23:16.678Z,82.88
2019-01-23T11:25:48.374Z,83.06
2019-01-23T11:28:20.069Z,83.23
2019-01-23T11:30:54.423Z,84.29
2019-01-23T11:33:23.266Z,84.42
2019-01-23T11:35:54.593Z,85.11
2019-01-23T11:38:26.745Z,84.97
2019-01-23T11:40:58.012Z,84.45
2019-01-23T11:43:26.722Z,83.32
2019-01-23T11:45:55.509Z,82.49
2019-01-23T11:48:24.158Z,83.18
2019-01-23T11:50:53.189Z,81.94
2019-01-23T11:53:23.662Z,80.93
2019-01-23T11:55:55.030Z,81.24
2019-01-23T11:58:26.917Z,81.64
2019-01-23T12:00:58.631Z,82.65
2019-01-23T12:03:27.314Z,82.07
2019-01-23T12:05:56.346Z,82.46
2019-01-23T12:08:28.545Z,81.83
2019-01-23T12:10:57.993Z,82.63
2019-01-23T12:13:26.782Z,82.75
2019-01-23T12:15:55.397Z,82.34
2019-01-23T12:18:23.982Z,83.38
2019-01-23T12:20:53.054Z,82.38
2019-01-23T12:23:21.749Z,81.76
2019-01-23T12:25:52.767Z,81.38
2019-01-23T12:28:20.999Z,81.77
2019-01-23T12:30:49.658Z,81.89
2019-01-23T12:33:18.314Z,82.30
2019-01-23T12:35:47.362Z,81.33
2019-01-23T12:38:15.925Z,81.08
2019-01-23T12:40:44.962Z,81.64
2019-01-23T12:43:14.079Z,82.26
2019-01-23T12:45:42.652Z,81.92
2019-01-23T12:48:11.642Z,82.28
2019-01-23T12:50:40.282Z,82.73
2019-01-23T12:53:13.893Z,82.28
2019-01-23T12:55:45.695Z,82.57
2019-01-23T12:58:14.301Z,82.43
2019-01-23T13:00:43.740Z,83.15
2019-01-23T13:03:12.657Z,83.24
2019-01-23T13:05:41.477Z,82.54
2019-01-23T13:08:10.048Z,82.89
2019-01-23T13:10:38.611Z,83.07
2019-01-23T13:13:07.520Z,82.69
2019-01-23T13:15:36.143Z,83.10
2019-01-23T13:18:04.854Z,83.23
2019-01-23T13:20:33.554Z,82.81
2019-01-23T13:23:02.269Z,83.24
2019-01-23T13:25:30.985Z,81.95
2019-01-23T13:28:21.667Z,82.34
2019-01-23T13:30:50.327Z,82.38
2019-01-23T13:33:19.365Z,83.36
2019-01-23T13:35:48.091Z,82.52
2019-01-23T13:38:16.800Z,82.23
2019-01-23T13:40:45.445Z,81.71
2019-01-23T13:43:14.075Z,81.91
2019-01-23T13:45:42.707Z,82.50
2019-01-23T13:48:11.508Z,82.16
2019-01-23T13:50:40.098Z,82.43
2019-01-23T13:53:12.005Z,83.22
2019-01-23T13:55:43.283Z,83.38
2019-01-23T13:58:14.559Z,84.06
2019-01-23T14:00:46.131Z,84.28
2019-01-23T14:03:14.780Z,83.22
2019-01-23T14:05:46.368Z,83.63
2019-01-23T14:08:18.079Z,82.91
2019-01-23T14:10:46.689Z,83.52
2019-01-23T14:13:15.710Z,83.19
2019-01-23T14:15:44.326Z,83.56
2019-01-23T14:18:13.037Z,83.90
2019-01-23T14:20:41.605Z,83.91
2019-01-23T14:23:10.315Z,84.59
2019-01-23T14:25:38.963Z,84.57
2019-01-23T14:28:08.527Z,83.95
2019-01-23T14:30:39.633Z,83.60
2019-01-23T14:33:08.705Z,84.18
2019-01-23T14:35:40.350Z,83.81
2019-01-23T14:38:09.056Z,84.90
2019-01-23T14:40:37.613Z,83.87
2019-01-23T14:43:06.723Z,84.41
2019-01-23T14:45:35.404Z,84.03
2019-01-23T14:48:04.138Z,83.97
2019-01-23T14:50:32.746Z,84.53
2019-01-23T14:53:01.368Z,84.00
2019-01-23T14:55:29.991Z,84.15
2019-01-23T14:57:58.598Z,84.73
2019-01-23T15:00:49.079Z,84.95
2019-01-23T15:03:17.730Z,84.77
2019-01-23T15:05:46.342Z,84.95
2019-01-23T15:08:14.911Z,84.58
2019-01-23T15:10:43.665Z,84.68
2019-01-23T15:13:12.374Z,85.33
2019-01-23T15:15:43.864Z,85.14
2019-01-23T15:18:12.597Z,85.29
2019-01-23T15:20:44.677Z,85.83
2019-01-23T15:23:13.314Z,85.13
2019-01-23T15:25:42.019Z,84.59
2019-01-23T15:28:10.632Z,84.56
2019-01-23T15:30:42.014Z,84.87
2019-01-23T15:33:14.004Z,84.39
2019-01-23T15:35:42.617Z,84.25
2019-01-23T15:38:11.735Z,84.99
2019-01-23T15:40:40.766Z,85.32
2019-01-23T15:43:09.378Z,84.77
2019-01-23T15:45:38.444Z,84.68
2019-01-23T15:48:07.531Z,84.36
2019-01-23T15:50:36.264Z,84.90
2019-01-23T15:53:07.748Z,84.89
2019-01-23T15:55:36.355Z,84.58
2019-01-23T15:58:07.652Z,85.07
2019-01-23T16:00:39.011Z,84.38
2019-01-23T16:03:10.408Z,84.20
2019-01-23T16:05:42.679Z,84.18
2019-01-23T16:08:14.055Z,84.31
2019-01-23T16:10:45.379Z,85.46
2019-01-23T16:13:17.481Z,85.27
2019-01-23T16:15:48.902Z,85.00
2019-01-23T16:18:20.486Z,84.84
2019-01-23T16:20:53.528Z,84.75
2019-01-23T16:23:25.221Z,84.73
2019-01-23T16:25:56.801Z,84.73
2019-01-23T16:28:28.456Z,85.10
2019-01-23T16:31:02.386Z,85.36
2019-01-23T16:33:30.252Z,84.49
2019-01-23T16:35:58.860Z,84.46
2019-01-23T16:38:30.654Z,84.82
2019-01-23T16:40:59.224Z,85.37
2019-01-23T16:43:27.872Z,85.26
2019-01-23T16:45:59.246Z,85.97
2019-01-23T16:48:27.883Z,85.52
2019-01-23T16:50:56.907Z,85.35
2019-01-23T16:53:27.338Z,84.68
2019-01-23T16:55:59.154Z,84.77
2019-01-23T16:58:27.723Z,84.95
2019-01-23T17:00:56.317Z,85.48
2019-01-23T17:03:25.117Z,85.93
2019-01-23T17:05:58.146Z,85.14
2019-01-23T17:08:26.753Z,85.17
2019-01-23T17:10:55.398Z,85.26
2019-01-23T17:13:24.068Z,84.68
2019-01-23T17:15:53.483Z,85.04
2019-01-23T17:18:24.993Z,84.93
2019-01-23T17:20:55.155Z,85.41
2019-01-23T17:23:26.642Z,85.66
2019-01-23T17:25:55.253Z,85.31
2019-01-23T17:28:26.900Z,85.66
2019-01-23T17:30:55.469Z,85.84
2019-01-23T17:33:24.040Z,86.07
2019-01-23T17:35:52.610Z,85.60
2019-01-23T17:38:23.308Z,85.38
2019-01-23T17:40:53.613Z,86.02
2019-01-23T17:43:22.571Z,85.31
2019-01-23T17:45:52.962Z,85.48
2019-01-23T17:48:22.098Z,85.29
2019-01-23T17:50:52.496Z,85.26
2019-01-23T17:53:21.004Z,85.72
2019-01-23T17:55:49.566Z,85.27
2019-01-23T17:58:18.133Z,86.14
2019-01-23T18:00:52.622Z,86.04
2019-01-23T18:03:23.812Z,86.40
2019-01-23T18:05:55.089Z,86.44
2019-01-23T18:08:26.792Z,86.31
2019-01-23T18:10:55.349Z,86.17
2019-01-23T18:13:29.962Z,86.01
2019-01-23T18:16:01.377Z,85.91
2019-01-23T18:18:29.991Z,86.13
2019-01-23T18:20:59.425Z,85.61
2019-01-23T18:23:27.985Z,85.31
2019-01-23T18:25:57.008Z,86.26
2019-01-23T18:28:26.009Z,85.77
2019-01-23T18:31:00.337Z,85.87
2019-01-23T18:33:41.101Z,86.02
2019-01-23T18:36:47.667Z,84.97
2019-01-23T18:39:31.143Z,84.99
2019-01-23T18:42:11.549Z,85.16
2019-01-23T18:44:52.040Z,85.17
2019-01-23T18:47:43.706Z,84.84
2019-01-23T18:50:48.137Z,84.02
2019-01-23T18:53:16.721Z,84.65
2019-01-23T18:55:45.766Z,84.17
2019-01-23T18:58:14.774Z,83.76
2019-01-23T19:00:46.154Z,84.37
2019-01-23T19:03:14.727Z,84.68
2019-01-23T19:05:43.769Z,84.08
2019-01-23T19:08:12.401Z,84.26
2019-01-23T19:10:43.957Z,83.81
2019-01-23T19:13:12.806Z,83.96
2019-01-23T19:15:43.979Z,84.47
2019-01-23T19:18:12.715Z,83.97
2019-01-23T19:20:41.409Z,84.62
2019-01-23T19:23:13.023Z,84.91
2019-01-23T19:25:41.587Z,84.07
2019-01-23T19:28:12.848Z,83.96
2019-01-23T19:30:44.232Z,84.21
2019-01-23T19:33:15.915Z,84.41
2019-01-23T19:35:47.611Z,84.13
2019-01-23T19:38:16.167Z,84.04
2019-01-23T19:40:49.441Z,83.56
2019-01-23T19:43:18.057Z,83.54
2019-01-23T19:45:46.674Z,83.17
2019-01-23T19:48:18.448Z,83.74
2019-01-23T19:50:49.852Z,83.55
2019-01-23T19:53:18.555Z,83.26
2019-01-23T19:55:49.856Z,83.17
2019-01-23T19:58:18.468Z,82.74
2019-01-23T20:00:47.139Z,82.85
2019-01-23T20:03:20.585Z,83.15
2019-01-23T20:05:52.435Z,83.04
2019-01-23T20:08:24.142Z,82.87
2019-01-23T20:10:52.944Z,82.58
2019-01-23T20:13:24.555Z,82.58
2019-01-23T20:15:56.506Z,82.54
2019-01-23T20:18:25.072Z,82.56
2019-01-23T20:20:55.180Z,82.39
2019-01-23T20:23:26.431Z,82.09
2019-01-23T20:25:57.953Z,82.62
2019-01-23T20:28:26.558Z,82.34
2019-01-23T20:30:55.286Z,82.57
2019-01-23T20:33:28.063Z,81.70
2019-01-23T20:35:57.136Z,81.74
2019-01-23T20:38:25.739Z,81.27
2019-01-23T20:40:58.053Z,82.17
2019-01-23T20:43:26.633Z,81.90
2019-01-23T20:45:55.197Z,82.43
2019-01-23T20:48:30.150Z,81.89
2019-01-23T20:50:59.211Z,81.62
2019-01-23T20:53:30.694Z,82.00
2019-01-23T20:55:59.258Z,82.10
2019-01-23T20:58:27.905Z,81.93
2019-01-23T21:00:59.381Z,82.58
2019-01-23T21:03:34.638Z,81.59
2019-01-23T21:05:58.264Z,81.78
2019-01-23T21:08:26.827Z,81.49
2019-01-23T21:10:55.396Z,81.54
2019-01-23T21:13:30.151Z,81.09
2019-01-23T21:15:58.925Z,81.36
2019-01-23T21:18:46.859Z,81.25
2019-01-23T21:21:15.849Z,81.02
2019-01-23T21:23:44.421Z,80.80
2019-01-23T21:26:13.052Z,80.49
2019-01-23T21:28:41.681Z,80.64
2019-01-23T21:31:10.251Z,80.50
2019-01-23T21:33:42.147Z,80.79
2019-01-23T21:36:14.329Z,80.86
2019-01-23T21:38:42.901Z,80.71
2019-01-23T21:41:11.469Z,81.08
2019-01-23T21:43:43.241Z,80.76
2019-01-23T21:46:11.816Z,79.96
2019-01-23T21:48:40.376Z,79.70
2019-01-23T21:51:12.010Z,80.04
2019-01-23T21:53:40.596Z,79.92
2019-01-23T21:56:09.295Z,80.04
2019-01-23T21:58:40.711Z,79.84
2019-01-23T22:01:12.095Z,80.03
2019-01-23T22:03:40.705Z,79.52
2019-01-23T22:06:09.315Z,79.42
2019-01-23T22:08:38.464Z,79.63
2019-01-23T22:11:07.056Z,80.24
2019-01-23T22:13:35.631Z,79.75
2019-01-23T22:16:04.262Z,80.05
2019-01-23T22:18:36.267Z,80.12
2019-01-23T22:21:05.184Z,80.08
2019-01-23T22:23:33.782Z,79.74
2019-01-23T22:26:02.359Z,79.46
2019-01-23T22:28:33.910Z,79.05
2019-01-23T22:31:02.534Z,79.24
2019-01-23T22:33:31.508Z,78.95
2019-01-23T22:36:00.088Z,78.68
2019-01-23T22:38:28.655Z,78.64
2019-01-23T22:40:57.221Z,78.39
2019-01-23T22:43:25.783Z,77.61
2019-01-23T22:45:54.769Z,78.73
2019-01-23T22:48:23.328Z,78.74
2019-01-23T22:50:53.532Z,78.19
2019-01-23T22:53:22.095Z,77.97
2019-01-23T22:55:51.935Z,78.43
2019-01-23T22:58:20.452Z,78.97
2019-01-23T23:00:57.890Z,78.36
2019-01-23T23:03:26.522Z,77.37
2019-01-23T23:05:55.201Z,77.53
2019-01-23T23:08:26.483Z,77.99
2019-01-23T23:10:55.455Z,77.52
2019-01-23T23:13:26.787Z,77.26
2019-01-23T23:15:55.792Z,78.02
2019-01-23T23:18:24.361Z,78.19
2019-01-23T23:20:55.848Z,77.47
2019-01-23T23:23:27.429Z,78.31
2019-01-23T23:25:56.037Z,77.37
2019-01-23T23:28:26.043Z,78.03
2019-01-23T23:30:57.588Z,77.68
2019-01-23T23:33:29.147Z,77.10
2019-01-23T23:35:57.713Z,78.39
2019-01-23T23:38:26.271Z,78.02
2019-01-23T23:40:54.903Z,77.67
2019-01-23T23:43:23.639Z,78.25
2019-01-23T23:45:52.671Z,78.05
2019-01-23T23:48:23.794Z,78.18
2019-01-23T23:50:54.835Z,77.89
2019-01-23T23:53:23.456Z,78.21
2019-01-23T23:55:52.019Z,77.89
2019-01-23T23:58:22.271Z,77.31
